Time;durP1;ratioP1;P1;durP2;ratioP2;P2;SDS_P1;SDS_P2;PMS_P1;PMS_P2;Temp;Humidity;BMP_temperature;BMP_pressure;BME280_temperature;BME280_humidity;BME280_pressure;Samples;Min_cycle;Max_cycle;Signal;HPM_P1;HPM_P2
2021/06/02 00:00:43;;;;;;;0.10;0.10;;;11.00;99.90;;;;;;5091581;28;20172;-73
2021/06/02 00:03:13;;;;;;;0.45;0.45;;;10.90;99.90;;;;;;5109801;28;20278;-73
2021/06/02 00:05:40;;;;;;;0.20;0.20;;;11.00;99.90;;;;;;5091533;28;20171;-73
2021/06/02 00:08:10;;;;;;;0.28;0.25;;;11.00;99.90;;;;;;5091316;28;20218;-73
2021/06/02 00:10:36;;;;;;;0.20;0.20;;;11.00;99.90;;;;;;5109751;28;20151;-73
2021/06/02 00:13:02;;;;;;;0.10;0.10;;;11.00;99.90;;;;;;5109679;28;20159;-73
2021/06/02 00:15:28;;;;;;;0.10;0.10;;;11.00;99.90;;;;;;5109612;28;20154;-73
2021/06/02 00:17:54;;;;;;;0.10;0.10;;;10.90;99.90;;;;;;5109576;28;20186;-73
2021/06/02 00:20:20;;;;;;;0.30;0.30;;;10.90;99.90;;;;;;5109501;28;20175;-73
2021/06/02 00:22:46;;;;;;;1.30;0.30;;;10.90;99.90;;;;;;5109546;28;20185;-73
2021/06/02 00:25:13;;;;;;;0.20;0.20;;;10.90;99.90;;;;;;5091408;28;20560;-73
2021/06/02 00:27:41;;;;;;;0.17;0.17;;;10.90;99.90;;;;;;5109368;28;20203;-73
2021/06/02 00:30:10;;;;;;;0.10;0.10;;;10.90;99.90;;;;;;5109505;28;20155;-73
2021/06/02 00:32:37;;;;;;;0.52;0.52;;;10.90;99.90;;;;;;5109311;28;20195;-73
2021/06/02 00:35:07;;;;;;;0.20;0.20;;;10.90;99.90;;;;;;5109340;28;20205;-73
2021/06/02 00:37:34;;;;;;;0.70;0.17;;;10.90;99.90;;;;;;5109047;28;20666;-73
2021/06/02 00:40:00;;;;;;;0.85;0.52;;;10.80;99.90;;;;;;5109233;28;20155;-73
2021/06/02 00:42:31;;;;;;;0.30;0.30;;;10.80;99.90;;;;;;5108816;28;20164;-72
2021/06/02 00:44:58;;;;;;;0.25;0.25;;;10.90;99.90;;;;;;5108812;28;20214;-73
2021/06/02 00:47:26;;;;;;;0.60;0.60;;;10.80;99.90;;;;;;5090452;28;20218;-73
2021/06/02 00:49:52;;;;;;;0.32;0.32;;;10.80;99.90;;;;;;5105141;28;20175;-73
2021/06/02 00:52:18;;;;;;;0.63;0.63;;;10.80;99.90;;;;;;5109035;28;20151;-73
2021/06/02 00:54:44;;;;;;;1.60;1.27;;;10.80;99.90;;;;;;5090906;28;20262;-72
2021/06/02 00:57:10;;;;;;;0.70;0.63;;;10.70;99.90;;;;;;5090692;28;20546;-72
2021/06/02 00:59:36;;;;;;;0.30;0.30;;;10.60;99.90;;;;;;5109802;28;20243;-73
2021/06/02 01:02:03;;;;;;;0.35;0.35;;;10.70;99.90;;;;;;5109283;28;20259;-73
2021/06/02 01:04:29;;;;;;;0.38;0.38;;;10.70;99.90;;;;;;5109180;28;20156;-73
2021/06/02 01:06:56;;;;;;;1.20;1.10;;;10.70;99.90;;;;;;5090923;28;20223;-73
2021/06/02 01:09:25;;;;;;;1.85;0.95;;;10.70;99.90;;;;;;5090448;28;20217;-73
2021/06/02 01:11:52;;;;;;;0.03;0.03;;;10.70;99.90;;;;;;5108902;28;20156;-73
2021/06/02 01:14:22;;;;;;;0.10;0.10;;;10.70;99.90;;;;;;5108905;28;20246;-73
2021/06/02 01:16:48;;;;;;;0.10;0.10;;;10.70;99.90;;;;;;5108875;28;20152;-73
2021/06/02 01:19:20;;;;;;;0.00;0.00;;;10.70;99.90;;;;;;5108694;28;20196;-73
2021/06/02 01:21:53;;;;;;;0.20;0.20;;;10.70;99.90;;;;;;5090535;28;20168;-73
2021/06/02 01:24:20;;;;;;;1.40;0.68;;;10.80;99.90;;;;;;5108739;28;20156;-73
2021/06/02 01:26:51;;;;;;;0.73;0.73;;;10.80;99.90;;;;;;5090451;28;20178;-73
2021/06/02 01:29:17;;;;;;;0.30;0.30;;;10.70;99.90;;;;;;5090420;28;20194;-73
2021/06/02 01:31:43;;;;;;;2.60;1.15;;;10.60;99.90;;;;;;5108694;28;20216;-73
2021/06/02 01:34:33;;;;;;;0.38;0.38;;;10.50;99.90;;;;;;5108782;28;20159;-73
2021/06/02 01:36:59;;;;;;;0.52;0.52;;;10.40;99.90;;;;;;5090295;28;20224;-73
2021/06/02 01:39:43;;;;;;;0.13;0.13;;;10.40;99.90;;;;;;5108652;28;20227;-73
2021/06/02 01:42:22;;;;;;;0.60;0.60;;;10.40;99.90;;;;;;5090448;28;20175;-72
2021/06/02 01:45:03;;;;;;;0.22;0.22;;;10.40;99.90;;;;;;5108431;28;20264;-72
2021/06/02 01:48:23;;;;;;;0.28;0.28;;;10.40;99.90;;;;;;5108331;28;20548;-73
2021/06/02 01:51:18;;;;;;;0.10;0.10;;;10.30;99.90;;;;;;5086911;28;20287;-73
2021/06/02 01:54:12;;;;;;;2.55;2.28;;;10.30;99.90;;;;;;5071474;28;20164;-73
2021/06/02 01:56:49;;;;;;;0.45;0.35;;;10.20;99.90;;;;;;5068107;28;20270;-73
2021/06/02 01:59:32;;;;;;;0.05;0.05;;;10.20;99.90;;;;;;5110059;28;20198;-73
2021/06/02 02:02:07;;;;;;;0.10;0.10;;;10.20;99.90;;;;;;5112219;28;20151;-73
2021/06/02 02:04:58;;;;;;;0.55;0.50;;;10.10;99.90;;;;;;5112204;28;20269;-73
2021/06/02 02:07:54;;;;;;;0.22;0.22;;;10.00;99.90;;;;;;5111895;28;20203;-73
2021/06/02 02:10:41;;;;;;;0.13;0.13;;;10.00;99.90;;;;;;5112167;28;20183;-72
2021/06/02 02:13:40;;;;;;;0.20;0.20;;;9.90;99.90;;;;;;5111924;28;20163;-72
2021/06/02 02:16:31;;;;;;;0.22;0.15;;;9.80;99.90;;;;;;5093652;28;20167;-73
2021/06/02 02:19:03;;;;;;;0.10;0.10;;;9.80;99.90;;;;;;5111792;28;20195;-73
2021/06/02 02:21:39;;;;;;;0.30;0.30;;;9.70;99.90;;;;;;5111852;28;20253;-73
2021/06/02 02:24:43;;;;;;;0.20;0.20;;;9.60;99.90;;;;;;5111720;28;20165;-72
2021/06/02 02:27:25;;;;;;;0.65;0.65;;;9.60;99.90;;;;;;5093252;28;20194;-72
2021/06/02 02:30:08;;;;;;;1.55;1.17;;;9.50;99.90;;;;;;5093506;28;20163;-73
2021/06/02 02:32:42;;;;;;;0.17;0.17;;;9.40;99.90;;;;;;5093150;28;20159;-72
2021/06/02 02:35:21;;;;;;;0.20;0.20;;;9.40;99.90;;;;;;5111339;28;20177;-72
2021/06/02 02:38:01;;;;;;;0.20;0.20;;;9.30;99.90;;;;;;5111305;28;20195;-72
2021/06/02 02:40:54;;;;;;;0.30;0.30;;;9.40;99.90;;;;;;5111155;28;20168;-73
2021/06/02 02:43:43;;;;;;;0.20;0.20;;;9.30;99.90;;;;;;5105286;28;20187;-72
2021/06/02 02:46:21;;;;;;;0.75;0.75;;;9.30;99.90;;;;;;5092775;28;20219;-72
2021/06/02 02:48:53;;;;;;;0.32;0.32;;;9.30;99.90;;;;;;5110496;28;20291;-73
2021/06/02 02:51:27;;;;;;;0.08;0.08;;;9.40;99.90;;;;;;5092858;28;20180;-73
2021/06/02 02:54:16;;;;;;;0.10;0.10;;;9.40;99.90;;;;;;5111060;28;20180;-73
2021/06/02 02:57:06;;;;;;;0.47;0.30;;;9.40;99.90;;;;;;5110729;28;20175;-73
2021/06/02 02:59:38;;;;;;;4.85;0.82;;;9.30;99.90;;;;;;5092501;28;20171;-72
2021/06/02 03:02:21;;;;;;;0.20;0.20;;;9.20;99.90;;;;;;5110812;28;20219;-73
2021/06/02 03:04:53;;;;;;;11.50;0.68;;;9.10;99.90;;;;;;5110738;28;20539;-73
2021/06/02 03:07:22;;;;;;;0.52;0.52;;;9.10;99.90;;;;;;5110532;28;20216;-73
2021/06/02 03:10:07;;;;;;;0.30;0.25;;;9.00;99.90;;;;;;5110644;28;20212;-73
2021/06/02 03:12:54;;;;;;;0.00;0.00;;;8.90;99.90;;;;;;5110481;28;20155;-73
2021/06/02 03:15:45;;;;;;;5.85;1.45;;;8.80;99.90;;;;;;5110613;28;20147;-73
2021/06/02 03:18:31;;;;;;;0.45;0.45;;;8.70;99.90;;;;;;5091890;28;20194;-73
2021/06/02 03:21:24;;;;;;;0.10;0.10;;;8.70;99.90;;;;;;5092080;28;20261;-73
2021/06/02 03:24:04;;;;;;;0.10;0.10;;;8.70;99.90;;;;;;5110291;28;20214;-73
2021/06/02 03:26:34;;;;;;;3.13;0.80;;;8.70;99.90;;;;;;5110273;28;20166;-73
2021/06/02 03:29:06;;;;;;;1.95;1.83;;;8.80;99.90;;;;;;5091793;28;20207;-73
2021/06/02 03:32:06;;;;;;;0.22;0.22;;;8.80;99.90;;;;;;5110001;28;20163;-72
2021/06/02 03:34:57;;;;;;;0.08;0.08;;;8.90;99.90;;;;;;5091796;28;20261;-73
2021/06/02 03:37:53;;;;;;;2.78;0.60;;;9.00;99.90;;;;;;5091819;28;20221;-73
2021/06/02 03:40:52;;;;;;;0.75;0.75;;;9.10;99.90;;;;;;5109973;28;20155;-72
2021/06/02 03:43:43;;;;;;;2.80;0.95;;;9.30;99.90;;;;;;5109905;28;20612;-72
2021/06/02 03:46:17;;;;;;;1.13;1.13;;;9.50;99.90;;;;;;5109627;28;20221;-73
2021/06/02 03:49:13;;;;;;;0.20;0.20;;;9.60;99.90;;;;;;5099528;28;20210;-73
2021/06/02 03:52:06;;;;;;;0.40;0.40;;;9.60;99.90;;;;;;5109907;28;20272;-73
2021/06/02 03:54:35;;;;;;;0.90;0.90;;;9.70;99.90;;;;;;5109823;28;20156;-73
2021/06/02 03:57:19;;;;;;;0.10;0.10;;;10.20;99.90;;;;;;5110098;28;20194;-72
2021/06/02 03:59:59;;;;;;;2.55;1.30;;;10.70;99.90;;;;;;5109804;28;20163;-73
2021/06/02 04:02:38;;;;;;;0.10;0.10;;;11.30;99.90;;;;;;5109713;28;20171;-73
2021/06/02 04:05:19;;;;;;;0.55;0.55;;;11.70;99.90;;;;;;5109937;28;20155;-73
2021/06/02 04:08:23;;;;;;;0.28;0.28;;;12.00;99.90;;;;;;5091325;28;20305;-73
2021/06/02 04:11:26;;;;;;;0.20;0.20;;;12.10;99.90;;;;;;5091552;28;20178;-73
2021/06/02 04:14:00;;;;;;;0.30;0.30;;;12.30;99.90;;;;;;5109697;28;20192;-73
2021/06/02 04:16:32;;;;;;;0.22;0.22;;;12.80;99.90;;;;;;5090826;28;20168;-73
2021/06/02 04:19:03;;;;;;;0.20;0.20;;;13.00;99.90;;;;;;5109490;28;20194;-73
2021/06/02 04:21:30;;;;;;;0.25;0.25;;;13.30;99.90;;;;;;5109310;28;20163;-73
2021/06/02 04:23:58;;;;;;;0.50;0.50;;;13.30;99.90;;;;;;5109426;28;20151;-73
2021/06/02 04:26:30;;;;;;;1.55;1.02;;;13.30;99.90;;;;;;5109541;28;20527;-73
2021/06/02 04:28:59;;;;;;;0.73;0.73;;;13.70;99.90;;;;;;5109308;28;20203;-73
2021/06/02 04:31:28;;;;;;;0.20;0.20;;;13.70;99.90;;;;;;5109383;28;20163;-73
2021/06/02 04:33:58;;;;;;;10.07;0.75;;;13.80;99.90;;;;;;5109220;28;20581;-73
2021/06/02 04:36:25;;;;;;;0.47;0.47;;;13.90;99.90;;;;;;5109290;28;20160;-73
2021/06/02 04:38:54;;;;;;;0.50;0.50;;;14.10;99.90;;;;;;5090800;28;20211;-73
2021/06/02 04:41:28;;;;;;;0.43;0.43;;;14.40;99.90;;;;;;5109323;28;20159;-73
2021/06/02 04:43:57;;;;;;;0.57;0.57;;;14.40;99.90;;;;;;5109078;28;20159;-73
2021/06/02 04:46:24;;;;;;;0.30;0.30;;;14.70;99.90;;;;;;5090729;28;20280;-73
2021/06/02 04:48:51;;;;;;;1.35;0.75;;;14.90;99.90;;;;;;5098905;28;20349;-73
2021/06/02 04:52:01;;;;;;;1.10;0.90;;;15.10;99.90;;;;;;5090657;28;20228;-73
2021/06/02 04:54:44;;;;;;;0.50;0.50;;;15.20;99.90;;;;;;5108975;28;20622;-73
2021/06/02 04:57:12;;;;;;;0.85;0.85;;;15.40;99.90;;;;;;5109013;28;20163;-73
2021/06/02 05:00:09;;;;;;;0.15;0.15;;;15.60;99.90;;;;;;5090923;28;20167;-72
2021/06/02 05:02:43;;;;;;;0.38;0.38;;;16.10;99.90;;;;;;5091035;28;20205;-73
2021/06/02 05:05:33;;;;;;;0.82;0.80;;;16.10;99.90;;;;;;5108841;28;20162;-73
2021/06/02 05:07:59;;;;;;;0.47;0.47;;;15.60;99.90;;;;;;5108320;28;20211;-72
2021/06/02 05:11:09;;;;;;;0.32;0.32;;;15.70;99.90;;;;;;5090635;28;20180;-73
2021/06/02 05:14:06;;;;;;;1.67;1.05;;;16.90;99.90;;;;;;5049483;28;20188;-72
2021/06/02 05:16:46;;;;;;;4.18;1.95;;;17.60;99.90;;;;;;5049725;28;20187;-73
2021/06/02 05:19:45;;;;;;;7.28;0.90;;;18.70;99.90;;;;;;5066377;28;20205;-73
2021/06/02 05:22:18;;;;;;;0.32;0.32;;;19.60;99.90;;;;;;5066258;28;20183;-73
2021/06/02 05:25:08;;;;;;;0.52;0.52;;;20.00;99.90;;;;;;5049369;28;20211;-72
2021/06/02 05:28:07;;;;;;;0.30;0.30;;;20.90;99.90;;;;;;5065867;28;20250;-72
2021/06/02 05:30:57;;;;;;;0.25;0.25;;;20.40;99.90;;;;;;5069851;28;20240;-73
2021/06/02 05:33:53;;;;;;;0.88;0.45;;;19.60;99.90;;;;;;5070086;28;20156;-73
2021/06/02 05:36:21;;;;;;;9.95;1.30;;;20.40;99.90;;;;;;5069814;28;20161;-72
2021/06/02 05:39:12;;;;;;;0.50;0.50;;;21.10;99.90;;;;;;5069827;28;20246;-72
2021/06/02 05:42:06;;;;;;;0.32;0.32;;;21.80;99.90;;;;;;5069718;28;20198;-72
2021/06/02 05:44:37;;;;;;;0.50;0.50;;;21.20;99.90;;;;;;5095683;28;20229;-72
2021/06/02 05:47:25;;;;;;;1.50;0.95;;;21.10;99.90;;;;;;5110616;28;20562;-72
2021/06/02 05:50:25;;;;;;;1.65;0.93;;;22.70;99.90;;;;;;5107121;28;20192;-72
2021/06/02 05:53:12;;;;;;;1.10;0.88;;;21.90;99.90;;;;;;5112313;28;20541;-72
2021/06/02 05:55:43;;;;;;;0.80;0.80;;;22.20;99.90;;;;;;5112285;28;20155;-72
2021/06/02 05:58:54;;;;;;;0.77;0.60;;;22.40;99.90;;;;;;5111995;28;20205;-71
2021/06/02 06:02:02;;;;;;;0.40;0.40;;;22.80;99.90;;;;;;5109332;28;20187;-72
2021/06/02 06:04:31;;;;;;;1.77;0.70;;;24.50;99.90;;;;;;5112097;28;20576;-70
2021/06/02 06:07:35;;;;;;;0.52;0.52;;;25.10;99.90;;;;;;5111940;28;20169;-72
2021/06/02 06:10:45;;;;;;;0.65;0.65;;;23.80;99.90;;;;;;5095841;28;20204;-72
2021/06/02 06:13:32;;;;;;;1.30;1.13;;;22.30;99.90;;;;;;5078947;28;20178;-72
2021/06/02 06:16:04;;;;;;;1.77;1.67;;;22.40;99.90;;;;;;5111635;28;20181;-72
2021/06/02 06:18:39;;;;;;;1.05;0.95;;;23.90;99.90;;;;;;5093402;28;20274;-72
2021/06/02 06:21:10;;;;;;;10.10;0.93;;;24.00;99.90;;;;;;5093487;28;20158;-72
2021/06/02 06:23:56;;;;;;;2.67;1.52;;;24.30;99.90;;;;;;5111721;28;20170;-72
2021/06/02 06:26:36;;;;;;;2.88;0.40;;;24.20;99.90;;;;;;5111631;28;20216;-72
2021/06/02 06:29:14;;;;;;;0.93;0.43;;;23.70;99.90;;;;;;5111612;28;20194;-72
2021/06/02 06:31:47;;;;;;;0.60;0.45;;;23.30;99.90;;;;;;5111124;28;20183;-72
2021/06/02 06:34:18;;;;;;;0.40;0.40;;;22.90;99.90;;;;;;5111574;28;20162;-72
2021/06/02 06:36:50;;;;;;;1.40;1.20;;;22.50;99.90;;;;;;5093201;28;20167;-72
2021/06/02 06:39:39;;;;;;;2.20;0.65;;;23.10;99.90;;;;;;5110941;28;20519;-72
2021/06/02 06:42:07;;;;;;;3.33;0.98;;;23.60;99.90;;;;;;5093245;28;20167;-72
2021/06/02 06:44:37;;;;;;;0.63;0.63;;;23.70;99.90;;;;;;5110983;28;20229;-72
2021/06/02 06:47:07;;;;;;;0.55;0.55;;;22.90;99.90;;;;;;5109258;28;20166;-72
2021/06/02 06:49:34;;;;;;;1.35;0.80;;;22.60;99.90;;;;;;5103496;28;20186;-72
2021/06/02 06:52:01;;;;;;;0.60;0.60;;;23.00;99.90;;;;;;5092702;28;20159;-72
2021/06/02 06:54:27;;;;;;;2.40;1.05;;;23.80;99.90;;;;;;5111032;28;20159;-72
2021/06/02 06:56:55;;;;;;;1.23;1.15;;;23.30;99.90;;;;;;5110761;28;20155;-72
2021/06/02 06:59:21;;;;;;;0.22;0.22;;;23.70;99.90;;;;;;5111053;28;20152;-72
2021/06/02 07:01:48;;;;;;;0.75;0.75;;;24.40;99.90;;;;;;5110953;28;20170;-72
2021/06/02 07:04:15;;;;;;;0.35;0.30;;;23.90;99.90;;;;;;5110915;28;20155;-72
2021/06/02 07:06:44;;;;;;;0.32;0.32;;;23.80;99.90;;;;;;5110849;28;20162;-72
2021/06/02 07:09:10;;;;;;;0.30;0.30;;;23.60;99.90;;;;;;5110114;28;20201;-72
2021/06/02 07:11:41;;;;;;;0.32;0.32;;;23.30;99.90;;;;;;5110395;28;20221;-72
2021/06/02 07:14:14;;;;;;;0.80;0.57;;;23.10;99.90;;;;;;5110686;28;20147;-72
2021/06/02 07:16:41;;;;;;;0.98;0.50;;;23.90;99.90;;;;;;5110662;28;20160;-72
2021/06/02 07:19:08;;;;;;;0.82;0.57;;;24.80;99.90;;;;;;5110783;28;20163;-72
2021/06/02 07:21:37;;;;;;;0.40;0.40;;;23.80;99.10;;;;;;5092232;28;20194;-72
2021/06/02 07:24:04;;;;;;;1.02;0.85;;;23.30;99.90;;;;;;5110491;28;20151;-72
2021/06/02 07:26:30;;;;;;;0.68;0.68;;;23.60;99.90;;;;;;5110457;28;20155;-72
2021/06/02 07:28:56;;;;;;;0.52;0.52;;;23.50;99.90;;;;;;5110371;28;20193;-72
2021/06/02 07:31:22;;;;;;;0.98;0.85;;;23.60;99.90;;;;;;5092025;28;20208;-72
2021/06/02 07:33:48;;;;;;;1.38;1.27;;;24.00;99.90;;;;;;5092036;28;20167;-72
2021/06/02 07:36:14;;;;;;;0.38;0.38;;;24.50;99.90;;;;;;5110405;28;20170;-72
2021/06/02 07:38:42;;;;;;;0.22;0.22;;;24.90;99.60;;;;;;5110284;28;20177;-72
2021/06/02 07:41:08;;;;;;;1.27;0.73;;;24.90;99.70;;;;;;5110174;28;20195;-72
2021/06/02 07:43:34;;;;;;;0.82;0.68;;;25.70;98.20;;;;;;5110186;28;20244;-72
2021/06/02 07:46:01;;;;;;;0.47;0.47;;;26.30;97.90;;;;;;5109891;28;20314;-73
2021/06/02 07:48:27;;;;;;;0.47;0.22;;;26.60;96.80;;;;;;5100027;28;20220;-72
2021/06/02 07:50:53;;;;;;;0.40;0.40;;;27.30;95.90;;;;;;5108945;28;20682;-72
2021/06/02 07:53:19;;;;;;;3.00;0.98;;;27.40;95.80;;;;;;5091270;28;20162;-72
2021/06/02 07:55:45;;;;;;;0.85;0.70;;;27.50;95.60;;;;;;5091647;28;20311;-72
2021/06/02 07:58:11;;;;;;;1.05;0.60;;;27.40;96.10;;;;;;5109932;28;20175;-71
2021/06/02 08:00:37;;;;;;;0.98;0.82;;;25.70;95.30;;;;;;5109404;28;20191;-71
2021/06/02 08:03:04;;;;;;;0.45;0.32;;;24.60;96.70;;;;;;5108963;28;20151;-71
2021/06/02 08:05:30;;;;;;;0.17;0.17;;;24.30;96.70;;;;;;5109922;28;20175;-71
2021/06/02 08:07:56;;;;;;;0.30;0.30;;;25.50;97.00;;;;;;5091239;28;20205;-72
2021/06/02 08:10:22;;;;;;;12.18;1.38;;;27.40;93.00;;;;;;5108250;28;20222;-72
2021/06/02 08:12:48;;;;;;;0.30;0.30;;;26.70;94.30;;;;;;5109095;28;20161;-73
2021/06/02 08:15:15;;;;;;;0.52;0.50;;;27.80;94.50;;;;;;5109488;28;20159;-73
2021/06/02 08:17:42;;;;;;;0.40;0.40;;;28.30;94.20;;;;;;5109086;28;20166;-73
2021/06/02 08:20:10;;;;;;;0.63;0.60;;;29.10;92.50;;;;;;5108887;28;20197;-72
2021/06/02 08:22:36;;;;;;;0.63;0.63;;;27.00;92.50;;;;;;5108739;28;20174;-72
2021/06/02 08:25:07;;;;;;;0.10;0.10;;;25.60;94.20;;;;;;5108702;28;20592;-72
2021/06/02 08:27:33;;;;;;;0.55;0.50;;;25.20;96.70;;;;;;5108884;28;20179;-72
2021/06/02 08:29:59;;;;;;;0.70;0.63;;;26.00;93.90;;;;;;5090643;28;20186;-73
2021/06/02 08:32:25;;;;;;;0.70;0.60;;;26.10;93.40;;;;;;5108568;28;20170;-73
2021/06/02 08:34:53;;;;;;;0.50;0.50;;;25.20;95.00;;;;;;5090830;28;20189;-72
2021/06/02 08:37:19;;;;;;;0.28;0.28;;;25.40;94.70;;;;;;5090752;28;20194;-72
2021/06/02 08:39:45;;;;;;;0.75;0.55;;;26.00;94.60;;;;;;5090724;28;20204;-73
2021/06/02 08:42:12;;;;;;;0.25;0.25;;;26.50;95.20;;;;;;5109089;28;20159;-73
2021/06/02 08:44:38;;;;;;;0.28;0.28;;;26.60;95.60;;;;;;5108966;28;20215;-73
2021/06/02 08:47:05;;;;;;;0.75;0.45;;;27.70;94.40;;;;;;5109141;28;20174;-72
2021/06/02 08:49:31;;;;;;;1.58;0.95;;;27.90;93.60;;;;;;5108961;28;20159;-73
2021/06/02 08:52:00;;;;;;;0.52;0.40;;;28.40;92.60;;;;;;5109123;28;20239;-73
2021/06/02 08:54:26;;;;;;;0.30;0.30;;;26.90;93.40;;;;;;5108897;28;20193;-72
2021/06/02 08:56:52;;;;;;;0.70;0.20;;;26.40;94.20;;;;;;5090878;28;20171;-73
2021/06/02 08:59:19;;;;;;;0.32;0.20;;;26.20;94.00;;;;;;5090619;28;20181;-73
2021/06/02 09:01:46;;;;;;;0.88;0.88;;;26.30;93.60;;;;;;5108180;28;20202;-72
2021/06/02 09:04:12;;;;;;;1.77;0.90;;;26.30;94.60;;;;;;5112849;28;20159;-72
2021/06/02 09:06:48;;;;;;;1.73;0.50;;;25.90;95.90;;;;;;5112847;28;20223;-72
2021/06/02 09:09:15;;;;;;;0.20;0.20;;;25.60;95.00;;;;;;5112918;28;20648;-72
2021/06/02 09:11:47;;;;;;;0.52;0.52;;;25.80;95.50;;;;;;5112783;28;20206;-72
2021/06/02 09:14:31;;;;;;;1.23;1.13;;;25.80;95.80;;;;;;5112846;28;20209;-72
2021/06/02 09:17:02;;;;;;;0.65;0.57;;;26.80;95.00;;;;;;5094575;28;20186;-72
2021/06/02 09:19:31;;;;;;;0.20;0.20;;;27.60;94.60;;;;;;5112789;28;20219;-72
2021/06/02 09:21:59;;;;;;;0.38;0.38;;;27.70;94.00;;;;;;5094553;28;20216;-72
2021/06/02 09:24:51;;;;;;;0.47;0.45;;;26.40;97.00;;;;;;5112836;28;20199;-72
2021/06/02 09:27:38;;;;;;;0.95;0.70;;;27.80;95.10;;;;;;5100499;28;20217;-72
2021/06/02 09:30:04;;;;;;;2.13;1.15;;;28.10;95.20;;;;;;5108261;28;20205;-72
2021/06/02 09:32:41;;;;;;;0.70;0.70;;;27.30;93.60;;;;;;5112313;28;20170;-72
2021/06/02 09:35:07;;;;;;;0.30;0.30;;;27.60;94.40;;;;;;5094322;28;20556;-72
2021/06/02 09:37:53;;;;;;;0.80;0.73;;;28.70;95.20;;;;;;5112363;28;20175;-73
2021/06/02 09:40:28;;;;;;;0.80;0.35;;;29.10;92.90;;;;;;5112254;28;20199;-73
2021/06/02 09:42:54;;;;;;;1.10;0.98;;;27.20;94.40;;;;;;5111954;28;20173;-73
2021/06/02 09:45:21;;;;;;;0.15;0.15;;;27.60;94.40;;;;;;5112027;28;20222;-72
2021/06/02 09:47:50;;;;;;;1.08;0.50;;;26.40;95.40;;;;;;5093983;28;20195;-72
2021/06/02 09:50:27;;;;;;;0.40;0.40;;;26.90;95.10;;;;;;5111874;28;20186;-72
2021/06/02 09:52:54;;;;;;;0.73;0.40;;;27.90;94.90;;;;;;5112300;28;20150;-72
2021/06/02 09:55:21;;;;;;;2.53;0.88;;;27.70;93.20;;;;;;5112094;28;20194;-72
2021/06/02 09:58:05;;;;;;;1.48;0.85;;;26.80;94.90;;;;;;5090575;28;20209;-72
2021/06/02 10:00:36;;;;;;;1.38;1.05;;;26.40;95.10;;;;;;5111972;28;20201;-72
2021/06/02 10:03:09;;;;;;;0.35;0.35;;;27.10;94.00;;;;;;5111638;28;20192;-72
2021/06/02 10:05:53;;;;;;;0.63;0.47;;;27.00;95.90;;;;;;5111826;28;20720;-72
2021/06/02 10:08:55;;;;;;;0.30;0.30;;;27.30;94.00;;;;;;5111305;28;20236;-72
2021/06/02 10:11:26;;;;;;;0.38;0.38;;;26.90;93.60;;;;;;5069221;28;20199;-72
2021/06/02 10:13:53;;;;;;;1.10;0.85;;;27.50;93.30;;;;;;5068014;28;20157;-73
2021/06/02 10:16:45;;;;;;;0.30;0.30;;;27.40;94.50;;;;;;5069337;28;20176;-73
2021/06/02 10:19:11;;;;;;;3.03;0.88;;;26.40;94.90;;;;;;5069158;28;20168;-73
2021/06/02 10:21:49;;;;;;;0.20;0.20;;;26.60;94.20;;;;;;5068970;28;20215;-73
2021/06/02 10:24:15;;;;;;;0.30;0.30;;;26.30;94.30;;;;;;5069090;28;20203;-73
2021/06/02 10:26:41;;;;;;;0.30;0.30;;;26.00;95.30;;;;;;5069063;28;20593;-73
2021/06/02 10:29:07;;;;;;;0.30;0.30;;;24.90;96.00;;;;;;5067331;28;20212;-73
2021/06/02 10:31:35;;;;;;;0.75;0.75;;;25.30;96.70;;;;;;5068851;28;20247;-73
2021/06/02 10:34:01;;;;;;;0.30;0.30;;;26.10;94.90;;;;;;5068701;28;20186;-73
2021/06/02 10:36:28;;;;;;;0.25;0.25;;;26.60;94.70;;;;;;5068608;28;20199;-73
2021/06/02 10:38:59;;;;;;;0.80;0.52;;;26.30;94.00;;;;;;5068928;28;20165;-73
2021/06/02 10:41:29;;;;;;;0.30;0.30;;;26.60;96.20;;;;;;5068566;28;20203;-73
2021/06/02 10:44:06;;;;;;;0.40;0.40;;;26.90;94.10;;;;;;5068603;28;20180;-73
2021/06/02 10:46:33;;;;;;;0.32;0.32;;;27.20;93.90;;;;;;5070961;28;20203;-73
2021/06/02 10:49:03;;;;;;;0.52;0.52;;;26.60;94.80;;;;;;5101284;28;20194;-73
2021/06/02 10:51:29;;;;;;;0.85;0.47;;;27.00;94.80;;;;;;5111014;28;20178;-73
2021/06/02 10:54:08;;;;;;;0.65;0.60;;;27.30;95.00;;;;;;5110967;28;20158;-73
2021/06/02 10:56:37;;;;;;;0.85;0.82;;;26.90;94.90;;;;;;5110836;28;20182;-73
2021/06/02 10:59:23;;;;;;;0.65;0.65;;;26.60;94.60;;;;;;5110986;28;20157;-73
2021/06/02 11:02:07;;;;;;;0.57;0.50;;;26.20;95.00;;;;;;5110175;28;20178;-73
2021/06/02 11:05:05;;;;;;;0.30;0.30;;;26.60;95.30;;;;;;5110533;28;20204;-73
2021/06/02 11:07:36;;;;;;;0.93;0.85;;;27.40;95.30;;;;;;5101534;28;20210;-73
2021/06/02 11:10:05;;;;;;;0.45;0.35;;;28.10;95.40;;;;;;5104640;28;20187;-73
2021/06/02 11:12:49;;;;;;;0.50;0.43;;;27.40;96.00;;;;;;5090161;28;20163;-73
2021/06/02 11:15:45;;;;;;;0.22;0.22;;;27.30;95.60;;;;;;5071627;28;20217;-73
2021/06/02 11:18:14;;;;;;;0.82;0.68;;;26.90;95.50;;;;;;5028136;28;20197;-73
2021/06/02 11:20:48;;;;;;;0.50;0.50;;;26.40;95.90;;;;;;5011722;28;20185;-73
2021/06/02 11:23:19;;;;;;;0.68;0.68;;;26.20;96.70;;;;;;5011533;28;20231;-73
2021/06/02 11:25:47;;;;;;;0.43;0.40;;;27.50;95.90;;;;;;5028158;28;20609;-73
2021/06/02 11:28:40;;;;;;;0.70;0.63;;;28.00;94.60;;;;;;5045526;28;20219;-73
2021/06/02 11:31:22;;;;;;;0.82;0.63;;;27.80;96.10;;;;;;5036036;28;20192;-73
2021/06/02 11:33:49;;;;;;;1.73;1.33;;;28.50;96.00;;;;;;5047928;28;20727;-73
2021/06/02 11:36:15;;;;;;;1.05;0.88;;;28.40;93.90;;;;;;5031041;28;20284;-73
2021/06/02 11:38:42;;;;;;;0.40;0.40;;;28.30;95.70;;;;;;5047671;28;20169;-73
2021/06/02 11:41:10;;;;;;;0.60;0.57;;;28.50;95.00;;;;;;5031044;28;20216;-73
2021/06/02 11:43:36;;;;;;;0.47;0.47;;;28.50;96.00;;;;;;5030724;28;20181;-73
2021/06/02 11:46:03;;;;;;;0.43;0.43;;;28.60;95.10;;;;;;5047250;28;20227;-73
2021/06/02 11:48:31;;;;;;;4.13;0.88;;;27.30;94.70;;;;;;5046395;28;20208;-73
2021/06/02 11:50:59;;;;;;;0.47;0.47;;;26.20;96.00;;;;;;5047243;28;20177;-73
2021/06/02 11:53:43;;;;;;;0.10;0.10;;;25.30;98.10;;;;;;5048606;28;20153;-73
2021/06/02 11:56:09;;;;;;;0.57;0.55;;;24.70;97.40;;;;;;5089422;28;20191;-73
2021/06/02 11:58:35;;;;;;;0.60;0.60;;;24.60;97.50;;;;;;5071425;28;20182;-72
2021/06/02 12:01:03;;;;;;;0.82;0.52;;;24.20;97.60;;;;;;5089293;28;20167;-73
2021/06/02 12:03:29;;;;;;;1.38;1.00;;;24.00;99.40;;;;;;5071038;28;20168;-72
2021/06/02 12:05:55;;;;;;;0.17;0.17;;;23.70;98.50;;;;;;5089270;28;20219;-72
2021/06/02 12:08:22;;;;;;;0.32;0.30;;;23.60;99.50;;;;;;5089386;28;20195;-73
2021/06/02 12:10:50;;;;;;;0.60;0.60;;;24.20;98.40;;;;;;5089291;28;20147;-72
2021/06/02 12:13:17;;;;;;;0.50;0.50;;;24.60;99.60;;;;;;5070752;28;20163;-72
2021/06/02 12:15:56;;;;;;;0.13;0.13;;;24.90;98.90;;;;;;5089161;28;20246;-72
2021/06/02 12:18:40;;;;;;;0.40;0.40;;;25.00;97.70;;;;;;5071090;28;20170;-73
2021/06/02 12:21:17;;;;;;;0.68;0.50;;;25.30;98.80;;;;;;5089088;28;20163;-72
2021/06/02 12:23:51;;;;;;;0.40;0.40;;;24.70;97.70;;;;;;5089075;28;20159;-72
2021/06/02 12:26:42;;;;;;;0.65;0.60;;;24.40;98.20;;;;;;5070647;28;20229;-72
2021/06/02 12:29:11;;;;;;;0.52;0.47;;;23.90;98.80;;;;;;5088796;28;20190;-73
2021/06/02 12:31:38;;;;;;;0.57;0.40;;;23.50;99.90;;;;;;5070714;28;20159;-72
2021/06/02 12:34:09;;;;;;;0.35;0.35;;;23.40;99.40;;;;;;5088830;28;20179;-72
2021/06/02 12:36:36;;;;;;;0.65;0.38;;;23.60;98.90;;;;;;5088386;28;20188;-73
2021/06/02 12:39:09;;;;;;;0.90;0.57;;;23.40;99.80;;;;;;5070191;28;20167;-73
2021/06/02 12:41:35;;;;;;;0.10;0.10;;;22.90;99.40;;;;;;5088126;28;20167;-73
2021/06/02 12:44:03;;;;;;;0.73;0.52;;;22.70;99.90;;;;;;5069597;28;20190;-72
2021/06/02 12:46:31;;;;;;;0.85;0.55;;;22.70;99.90;;;;;;5087758;28;20192;-72
2021/06/02 12:48:57;;;;;;;0.25;0.25;;;22.90;99.90;;;;;;5104686;28;20214;-72
2021/06/02 12:51:25;;;;;;;1.45;0.40;;;23.10;99.20;;;;;;5090270;28;20214;-73
2021/06/02 12:53:52;;;;;;;0.03;0.03;;;23.30;99.90;;;;;;5108128;28;20576;-72
2021/06/02 12:56:20;;;;;;;1.95;1.05;;;23.30;99.90;;;;;;5108181;28;20186;-72
2021/06/02 12:58:58;;;;;;;0.55;0.45;;;23.50;99.90;;;;;;5090046;28;20182;-73
2021/06/02 13:01:43;;;;;;;26.88;0.80;;;23.70;99.80;;;;;;5108177;28;20165;-72
2021/06/02 13:04:14;;;;;;;0.35;0.35;;;24.00;99.60;;;;;;5108748;28;20154;-73
2021/06/02 13:06:53;;;;;;;2.75;0.98;;;24.30;99.70;;;;;;5108347;28;20511;-72
2021/06/02 13:09:21;;;;;;;0.98;0.95;;;24.40;99.50;;;;;;5106835;28;20209;-73
2021/06/02 13:11:49;;;;;;;0.98;0.85;;;24.20;99.30;;;;;;5108493;28;20179;-72
2021/06/02 13:14:16;;;;;;;2.03;1.55;;;24.00;98.80;;;;;;5108696;28;20189;-73
2021/06/02 13:16:54;;;;;;;0.43;0.43;;;24.00;99.20;;;;;;5108161;28;20178;-72
2021/06/02 13:19:34;;;;;;;0.25;0.25;;;23.80;99.50;;;;;;5089926;28;20233;-72
2021/06/02 13:22:01;;;;;;;0.55;0.52;;;23.60;99.40;;;;;;5108612;28;20166;-72
2021/06/02 13:24:36;;;;;;;0.30;0.30;;;23.80;99.50;;;;;;5108461;28;20163;-72
2021/06/02 13:27:03;;;;;;;0.57;0.50;;;24.10;99.40;;;;;;5108504;28;20215;-72